createdAt,value
2016-09-26T00:00:21.674Z,0
2016-09-26T00:01:21.907Z,0
2016-09-26T00:02:23.226Z,0
2016-09-26T00:03:21.223Z,0
2016-09-26T00:04:22.366Z,0
2016-09-26T00:05:20.878Z,0
2016-09-26T00:06:21.398Z,0
2016-09-26T00:07:22.227Z,0
2016-09-26T00:08:22.063Z,0
2016-09-26T00:09:22.192Z,0
2016-09-26T00:10:21.503Z,0
2016-09-26T00:11:22.022Z,0
2016-09-26T00:12:22.516Z,0
2016-09-26T00:13:22.059Z,0
2016-09-26T00:14:21.294Z,0
2016-09-26T00:15:21.695Z,0
2016-09-26T00:16:22.052Z,0
2016-09-26T00:17:22.688Z,0
2016-09-26T00:18:21.576Z,0
2016-09-26T00:19:21.245Z,0
2016-09-26T00:20:22.948Z,0
2016-09-26T00:21:22.284Z,0
2016-09-26T00:22:21.999Z,0
2016-09-26T00:23:22.095Z,0
2016-09-26T00:24:22.230Z,0
2016-09-26T00:25:23.172Z,0
2016-09-26T00:26:21.975Z,0
2016-09-26T00:27:21.842Z,0
2016-09-26T00:28:22.745Z,0
2016-09-26T00:29:23.020Z,0
2016-09-26T00:30:23.210Z,0
2016-09-26T00:31:23.262Z,0
2016-09-26T00:32:23.009Z,0
2016-09-26T00:33:21.949Z,0
2016-09-26T00:34:21.840Z,0
2016-09-26T00:35:22.251Z,0
2016-09-26T00:36:21.882Z,0
2016-09-26T00:37:22.184Z,0
2016-09-26T00:38:21.915Z,0
2016-09-26T00:39:23.083Z,0
2016-09-26T00:40:22.048Z,0
2016-09-26T00:41:22.112Z,0
2016-09-26T00:42:22.952Z,0
2016-09-26T00:43:22.635Z,0
2016-09-26T00:44:23.205Z,0
2016-09-26T00:45:22.842Z,0
2016-09-26T00:46:21.772Z,0
2016-09-26T00:47:23.093Z,0
2016-09-26T00:48:22.801Z,0
2016-09-26T00:49:21.486Z,0
2016-09-26T00:50:22.294Z,0
2016-09-26T00:51:22.600Z,0
2016-09-26T00:52:22.054Z,0
2016-09-26T00:53:22.322Z,0
2016-09-26T00:54:21.825Z,0
2016-09-26T00:55:21.890Z,0
2016-09-26T00:56:23.848Z,0
2016-09-26T00:57:23.793Z,0
2016-09-26T00:58:23.611Z,0
2016-09-26T00:59:23.505Z,0
2016-09-26T01:00:22.595Z,0
2016-09-26T01:01:22.458Z,0
2016-09-26T01:02:24.074Z,0
2016-09-26T01:03:23.334Z,0
2016-09-26T01:04:23.550Z,0
2016-09-26T01:05:23.574Z,0
2016-09-26T01:06:22.335Z,0
2016-09-26T01:07:22.864Z,0
2016-09-26T01:08:22.483Z,0
2016-09-26T01:09:24.011Z,0
2016-09-26T01:10:24.605Z,0
2016-09-26T01:11:22.957Z,0
2016-09-26T01:12:23.139Z,0
2016-09-26T01:13:23.701Z,0
2016-09-26T01:14:24.864Z,0
2016-09-26T01:15:22.798Z,0
2016-09-26T01:16:24.068Z,0
2016-09-26T01:17:23.068Z,0
2016-09-26T01:18:23.631Z,0
2016-09-26T01:19:23.593Z,0
2016-09-26T01:20:23.290Z,0
2016-09-26T01:21:22.322Z,0
2016-09-26T01:22:23.224Z,0
2016-09-26T01:23:23.945Z,0
2016-09-26T01:24:23.616Z,0
2016-09-26T01:25:23.557Z,0
2016-09-26T01:26:22.777Z,0
2016-09-26T01:27:22.671Z,0
2016-09-26T01:28:22.660Z,0
2016-09-26T01:29:22.267Z,0
2016-09-26T01:30:22.714Z,0
2016-09-26T01:31:25.490Z,0
2016-09-26T01:32:24.507Z,0
2016-09-26T01:33:24.483Z,0
2016-09-26T01:34:23.605Z,0
2016-09-26T01:35:22.629Z,0
2016-09-26T01:36:23.827Z,0
2016-09-26T01:37:22.835Z,0
2016-09-26T01:38:22.272Z,0
2016-09-26T01:39:24.626Z,0
2016-09-26T01:40:22.471Z,0
2016-09-26T01:41:23.270Z,0
2016-09-26T01:42:24.333Z,0
2016-09-26T01:43:24.327Z,0
2016-09-26T01:44:24.778Z,0
2016-09-26T01:45:24.182Z,0
2016-09-26T01:46:25.302Z,0
2016-09-26T01:47:24.517Z,0
2016-09-26T01:48:24.250Z,0
2016-09-26T01:49:24.485Z,0
2016-09-26T01:50:25.055Z,0
2016-09-26T01:51:24.423Z,0
2016-09-26T01:52:23.848Z,0
2016-09-26T01:53:23.503Z,0
2016-09-26T01:54:23.948Z,0
2016-09-26T01:55:23.805Z,0
2016-09-26T01:56:23.593Z,0
2016-09-26T01:57:24.640Z,0
2016-09-26T01:58:23.487Z,0
2016-09-26T01:59:24.398Z,0
2016-09-26T02:00:24.358Z,0
2016-09-26T02:01:24.371Z,0
2016-09-26T02:02:24.775Z,0
2016-09-26T02:03:25.010Z,0
2016-09-26T02:04:25.038Z,0
2016-09-26T02:05:24.441Z,0
2016-09-26T02:06:24.262Z,0
2016-09-26T02:07:23.574Z,0
2016-09-26T02:08:23.448Z,0
2016-09-26T02:09:24.640Z,0
2016-09-26T02:10:25.307Z,0
2016-09-26T02:11:24.266Z,0
2016-09-26T02:12:24.151Z,0
2016-09-26T02:13:24.423Z,0
2016-09-26T02:14:25.067Z,0
2016-09-26T02:15:23.782Z,0
2016-09-26T02:16:25.600Z,0
2016-09-26T02:17:24.702Z,0
2016-09-26T02:18:25.068Z,0
2016-09-26T02:19:25.039Z,0
2016-09-26T02:20:25.150Z,0
2016-09-26T02:21:24.803Z,0
2016-09-26T02:22:25.324Z,0
2016-09-26T02:23:24.414Z,0
2016-09-26T02:24:24.365Z,0
2016-09-26T02:25:24.115Z,0
2016-09-26T02:26:24.402Z,0
2016-09-26T02:27:24.350Z,0
2016-09-26T02:28:24.381Z,0
2016-09-26T02:29:25.264Z,0
2016-09-26T02:30:24.926Z,0
2016-09-26T02:31:23.820Z,0
2016-09-26T02:32:24.192Z,0
2016-09-26T02:33:24.901Z,0
2016-09-26T02:34:26.070Z,0
2016-09-26T02:35:26.002Z,0
2016-09-26T02:36:25.067Z,0
2016-09-26T02:37:25.672Z,0
2016-09-26T02:38:24.981Z,0
2016-09-26T02:39:24.815Z,0
2016-09-26T02:40:24.646Z,0
2016-09-26T02:41:24.708Z,0
2016-09-26T02:42:24.669Z,0
2016-09-26T02:43:25.160Z,0
2016-09-26T02:44:25.946Z,0
2016-09-26T02:45:25.278Z,0
2016-09-26T02:46:25.484Z,0
2016-09-26T02:47:25.392Z,0
2016-09-26T02:48:24.669Z,0
2016-09-26T02:49:25.244Z,0
2016-09-26T02:50:25.428Z,0
2016-09-26T02:51:25.765Z,0
2016-09-26T02:52:25.079Z,0
2016-09-26T02:53:25.752Z,0
2016-09-26T02:54:24.988Z,0
2016-09-26T02:55:25.007Z,0
2016-09-26T02:56:25.737Z,0
2016-09-26T02:57:25.971Z,0
2016-09-26T02:58:25.757Z,0
2016-09-26T02:59:24.647Z,0
2016-09-26T03:00:24.984Z,0
2016-09-26T03:01:24.977Z,0
2016-09-26T03:02:25.507Z,0
2016-09-26T03:03:24.465Z,0
2016-09-26T03:04:24.760Z,0
2016-09-26T03:05:25.280Z,0
2016-09-26T03:06:26.342Z,0
2016-09-26T03:07:25.359Z,0
2016-09-26T03:08:26.422Z,0
2016-09-26T03:09:26.468Z,0
2016-09-26T03:10:25.933Z,0
2016-09-26T03:11:25.161Z,0
2016-09-26T03:12:25.792Z,0
2016-09-26T03:13:24.988Z,0
2016-09-26T03:14:24.686Z,0
2016-09-26T03:15:24.577Z,0
2016-09-26T03:16:25.782Z,0
2016-09-26T03:17:25.058Z,0
2016-09-26T03:18:26.146Z,0
2016-09-26T03:19:25.113Z,0
2016-09-26T03:20:26.446Z,0
2016-09-26T03:21:25.717Z,0
2016-09-26T03:22:26.536Z,0
2016-09-26T03:23:26.827Z,0
2016-09-26T03:24:26.751Z,0
2016-09-26T03:25:26.355Z,0
2016-09-26T03:26:26.088Z,0
2016-09-26T03:27:26.011Z,0
2016-09-26T03:28:25.744Z,0
2016-09-26T03:29:26.345Z,0
2016-09-26T03:30:25.489Z,0
2016-09-26T03:31:26.039Z,0
2016-09-26T03:32:25.832Z,0
2016-09-26T03:33:25.756Z,0
2016-09-26T03:34:26.617Z,0
2016-09-26T03:35:26.796Z,0
2016-09-26T03:36:25.444Z,0
2016-09-26T03:37:26.206Z,0
2016-09-26T03:38:26.024Z,0
2016-09-26T03:39:27.353Z,0
2016-09-26T03:40:24.991Z,0
2016-09-26T03:41:27.094Z,0
2016-09-26T03:42:26.286Z,0
2016-09-26T03:43:26.567Z,0
2016-09-26T03:44:26.706Z,0
2016-09-26T03:45:25.675Z,0
2016-09-26T03:46:27.303Z,0
2016-09-26T03:47:26.642Z,0
2016-09-26T03:48:27.278Z,0
2016-09-26T03:49:26.871Z,0
2016-09-26T03:50:27.540Z,0
2016-09-26T03:51:26.219Z,0
2016-09-26T03:52:25.619Z,0
2016-09-26T03:53:26.650Z,0
2016-09-26T03:54:27.207Z,0
2016-09-26T03:55:26.220Z,0
2016-09-26T03:56:25.922Z,0
2016-09-26T03:57:26.077Z,0
2016-09-26T03:58:26.188Z,0
2016-09-26T03:59:26.547Z,0
2016-09-26T04:00:26.986Z,0
2016-09-26T04:01:26.216Z,0
2016-09-26T04:02:26.280Z,0
2016-09-26T04:03:26.098Z,0
2016-09-26T04:04:26.870Z,0
2016-09-26T04:05:27.085Z,0
2016-09-26T04:06:27.395Z,0
2016-09-26T04:07:26.168Z,0
2016-09-26T04:08:27.637Z,0
2016-09-26T04:09:27.653Z,0
2016-09-26T04:10:26.692Z,0
2016-09-26T04:11:27.465Z,0
2016-09-26T04:12:28.000Z,0
2016-09-26T04:13:26.592Z,0
2016-09-26T04:14:27.049Z,0
2016-09-26T04:15:26.518Z,0
2016-09-26T04:16:26.391Z,0
2016-09-26T04:17:28.961Z,0
2016-09-26T04:18:27.910Z,0
2016-09-26T04:19:27.890Z,0
2016-09-26T04:20:24.556Z,0
2016-09-26T04:21:28.603Z,0
2016-09-26T04:22:27.495Z,0
2016-09-26T04:23:27.172Z,0
2016-09-26T04:24:26.747Z,0
2016-09-26T04:25:28.743Z,0
2016-09-26T04:26:26.429Z,0
2016-09-26T04:27:26.765Z,0
2016-09-26T04:28:28.036Z,0
2016-09-26T04:29:27.859Z,0
2016-09-26T04:30:28.672Z,0
2016-09-26T04:31:25.387Z,0
2016-09-26T04:32:28.406Z,0
2016-09-26T04:33:27.485Z,0
2016-09-26T04:34:27.351Z,0
2016-09-26T04:35:27.587Z,0
2016-09-26T04:36:26.210Z,0
2016-09-26T04:37:27.112Z,0
2016-09-26T04:38:27.437Z,0
2016-09-26T04:39:26.874Z,0
2016-09-26T04:40:27.632Z,0
2016-09-26T04:41:26.958Z,0
2016-09-26T04:42:27.269Z,0
2016-09-26T04:43:28.919Z,0
2016-09-26T04:44:27.220Z,0
2016-09-26T04:45:27.356Z,0
2016-09-26T04:46:30.060Z,0
2016-09-26T04:47:27.696Z,0
2016-09-26T04:48:27.848Z,0
2016-09-26T04:49:26.405Z,0
2016-09-26T04:50:26.810Z,0
2016-09-26T04:51:27.878Z,0
2016-09-26T04:52:26.930Z,0
2016-09-26T04:53:27.725Z,0
2016-09-26T04:54:27.871Z,0
2016-09-26T04:55:27.531Z,0
2016-09-26T04:56:27.758Z,0
2016-09-26T04:57:29.429Z,0
2016-09-26T04:58:29.080Z,0
2016-09-26T04:59:27.139Z,0
2016-09-26T05:00:27.174Z,0
2016-09-26T05:01:27.056Z,0
2016-09-26T05:02:27.475Z,0
2016-09-26T05:03:28.078Z,0
2016-09-26T05:04:29.062Z,0
2016-09-26T05:05:27.418Z,0
2016-09-26T05:06:29.099Z,0
2016-09-26T05:07:27.599Z,0
2016-09-26T05:08:29.084Z,0
2016-09-26T05:09:28.041Z,0
2016-09-26T05:10:27.612Z,0
2016-09-26T05:11:28.366Z,0
2016-09-26T05:12:27.768Z,0
2016-09-26T05:13:27.606Z,5
2016-09-26T05:14:27.667Z,5
2016-09-26T05:15:26.565Z,5
2016-09-26T05:16:27.284Z,5
2016-09-26T05:17:27.375Z,5
2016-09-26T05:18:27.245Z,5
2016-09-26T05:19:26.008Z,5
2016-09-26T05:20:26.117Z,5
2016-09-26T05:21:25.773Z,10
2016-09-26T05:22:26.152Z,10
2016-09-26T05:23:26.389Z,10
2016-09-26T05:24:25.802Z,10
2016-09-26T05:25:27.771Z,10
2016-09-26T05:26:27.381Z,15
2016-09-26T05:27:28.649Z,15
2016-09-26T05:28:28.968Z,15
2016-09-26T05:29:27.644Z,15
2016-09-26T05:30:29.118Z,20
2016-09-26T05:31:29.020Z,20
2016-09-26T05:32:29.197Z,20
2016-09-26T05:33:28.939Z,20
2016-09-26T05:34:30.721Z,20
2016-09-26T05:35:28.380Z,25
2016-09-26T05:36:28.660Z,25
2016-09-26T05:37:28.368Z,25
2016-09-26T05:38:27.887Z,25
2016-09-26T05:39:30.471Z,25
2016-09-26T05:40:29.055Z,30
2016-09-26T05:41:29.074Z,30
2016-09-26T05:42:28.197Z,35
2016-09-26T05:43:30.379Z,40
2016-09-26T05:44:30.609Z,45
2016-09-26T05:45:31.054Z,50
2016-09-26T05:46:29.120Z,55
2016-09-26T05:47:28.459Z,55
2016-09-26T05:48:28.712Z,55
2016-09-26T05:49:28.888Z,60
2016-09-26T05:50:29.221Z,60
2016-09-26T05:51:28.023Z,65
2016-09-26T05:52:28.287Z,65
2016-09-26T05:53:28.599Z,65
2016-09-26T05:54:29.236Z,70
2016-09-26T05:55:28.969Z,70
2016-09-26T05:56:28.444Z,70
2016-09-26T05:57:29.003Z,70
2016-09-26T05:58:28.745Z,70
2016-09-26T05:59:29.230Z,70
2016-09-26T06:00:29.066Z,75
2016-09-26T06:01:28.861Z,75
2016-09-26T06:02:30.177Z,80
2016-09-26T06:03:28.599Z,85
2016-09-26T06:04:29.473Z,85
2016-09-26T06:05:28.954Z,85
2016-09-26T06:06:30.426Z,85
2016-09-26T06:07:28.816Z,85
2016-09-26T06:08:28.954Z,85
2016-09-26T06:09:29.929Z,85
2016-09-26T06:10:28.931Z,90
2016-09-26T06:11:29.716Z,90
2016-09-26T06:12:30.176Z,95
2016-09-26T06:13:29.095Z,95
2016-09-26T06:14:28.557Z,100
2016-09-26T06:15:28.719Z,100
2016-09-26T06:16:29.057Z,105
2016-09-26T06:17:30.046Z,105
2016-09-26T06:18:30.155Z,110
2016-09-26T06:19:29.058Z,110
2016-09-26T06:20:29.970Z,115
2016-09-26T06:21:29.966Z,115
2016-09-26T06:22:29.853Z,115
2016-09-26T06:23:29.172Z,115
2016-09-26T06:24:29.656Z,115
2016-09-26T06:25:29.422Z,120
2016-09-26T06:26:30.422Z,125
2016-09-26T06:27:28.678Z,130
2016-09-26T06:28:29.872Z,135
2016-09-26T06:29:28.124Z,140
2016-09-26T06:30:31.101Z,140
2016-09-26T06:31:30.760Z,140
2016-09-26T06:32:30.731Z,140
2016-09-26T06:33:30.485Z,145
2016-09-26T06:34:29.407Z,145
2016-09-26T06:35:30.320Z,145
2016-09-26T06:36:29.321Z,145
2016-09-26T06:37:29.656Z,155
2016-09-26T06:38:29.216Z,160
2016-09-26T06:39:29.903Z,165
2016-09-26T06:40:29.416Z,175
2016-09-26T06:41:29.134Z,180
2016-09-26T06:42:29.102Z,185
2016-09-26T06:43:30.553Z,195
2016-09-26T06:44:29.035Z,195
2016-09-26T06:45:30.627Z,205
2016-09-26T06:46:31.113Z,210
2016-09-26T06:47:30.421Z,215
2016-09-26T06:48:29.166Z,220
2016-09-26T06:49:31.818Z,225
2016-09-26T06:50:31.973Z,225
2016-09-26T06:51:29.192Z,225
2016-09-26T06:52:29.667Z,225
2016-09-26T06:53:30.546Z,225
2016-09-26T06:54:30.173Z,230
2016-09-26T06:55:29.458Z,230
2016-09-26T06:56:30.459Z,230
2016-09-26T06:57:32.246Z,230
2016-09-26T06:58:31.242Z,230
2016-09-26T06:59:29.214Z,235
2016-09-26T07:00:30.848Z,235
2016-09-26T07:01:29.993Z,235
2016-09-26T07:02:30.219Z,240
2016-09-26T07:03:30.855Z,235
2016-09-26T07:04:30.561Z,230
2016-09-26T07:05:30.546Z,225
2016-09-26T07:06:30.234Z,220
2016-09-26T07:07:31.945Z,220
2016-09-26T07:08:31.006Z,220
2016-09-26T07:09:30.534Z,225
2016-09-26T07:10:29.189Z,230
2016-09-26T07:11:31.423Z,235
2016-09-26T07:12:30.646Z,240
2016-09-26T07:13:30.230Z,245
2016-09-26T07:14:30.424Z,250
2016-09-26T07:15:29.459Z,260
2016-09-26T07:16:31.474Z,270
2016-09-26T07:17:30.897Z,275
2016-09-26T07:18:29.879Z,285
2016-09-26T07:19:29.974Z,290
2016-09-26T07:20:30.837Z,295
2016-09-26T07:21:30.576Z,305
2016-09-26T07:22:32.237Z,310
2016-09-26T07:23:30.314Z,315
2016-09-26T07:24:31.781Z,320
2016-09-26T07:25:30.558Z,325
2016-09-26T07:26:32.494Z,335
2016-09-26T07:27:32.891Z,335
2016-09-26T07:28:30.547Z,345
2016-09-26T07:29:31.875Z,355
2016-09-26T07:30:30.781Z,360
2016-09-26T07:31:31.116Z,365
2016-09-26T07:32:30.998Z,370
2016-09-26T07:33:30.443Z,375
2016-09-26T07:34:30.750Z,375
2016-09-26T07:35:31.404Z,380
2016-09-26T07:36:30.298Z,385
2016-09-26T07:37:31.845Z,390
2016-09-26T07:38:30.328Z,395
2016-09-26T07:39:30.544Z,395
2016-09-26T07:40:30.360Z,400
2016-09-26T07:41:32.615Z,405
2016-09-26T07:42:31.910Z,395
2016-09-26T07:43:30.620Z,390
2016-09-26T07:44:31.287Z,385
2016-09-26T07:45:30.080Z,380
2016-09-26T07:46:30.380Z,370
2016-09-26T07:47:30.702Z,360
2016-09-26T07:48:32.133Z,345
2016-09-26T07:49:30.689Z,340
2016-09-26T07:50:31.642Z,330
2016-09-26T07:51:32.546Z,330
2016-09-26T07:52:30.524Z,335
2016-09-26T07:53:31.656Z,345
2016-09-26T07:54:30.471Z,350
2016-09-26T07:55:31.516Z,355
2016-09-26T07:56:30.856Z,360
2016-09-26T07:57:33.022Z,365
2016-09-26T07:58:31.791Z,370
2016-09-26T07:59:31.937Z,370
2016-09-26T08:00:32.609Z,365
2016-09-26T08:01:32.117Z,365
2016-09-26T08:02:31.543Z,365
2016-09-26T08:03:31.261Z,365
2016-09-26T08:04:31.407Z,355
2016-09-26T08:05:30.836Z,355
2016-09-26T08:06:31.796Z,350
2016-09-26T08:07:31.792Z,350
2016-09-26T08:08:32.162Z,365
2016-09-26T08:09:31.659Z,385
2016-09-26T08:10:31.946Z,395
2016-09-26T08:11:31.323Z,395
2016-09-26T08:12:32.730Z,405
2016-09-26T08:13:31.870Z,415
2016-09-26T08:14:30.460Z,420
2016-09-26T08:15:32.320Z,430
2016-09-26T08:16:31.285Z,440
2016-09-26T08:17:31.843Z,445
2016-09-26T08:18:32.541Z,445
2016-09-26T08:19:31.418Z,455
2016-09-26T08:20:32.285Z,460
2016-09-26T08:21:32.151Z,475
2016-09-26T08:22:31.608Z,485
2016-09-26T08:23:32.372Z,505
2016-09-26T08:24:31.331Z,525
2016-09-26T08:25:31.591Z,540
2016-09-26T08:26:31.572Z,555
2016-09-26T08:27:31.517Z,570
2016-09-26T08:28:33.530Z,575
2016-09-26T08:29:32.235Z,585
2016-09-26T08:30:33.843Z,595
2016-09-26T08:31:32.166Z,600
2016-09-26T08:32:32.762Z,605
2016-09-26T08:33:32.576Z,615
2016-09-26T08:34:32.958Z,625
2016-09-26T08:35:31.627Z,640
2016-09-26T08:36:33.401Z,650
2016-09-26T08:37:32.870Z,660
2016-09-26T08:38:34.143Z,675
2016-09-26T08:39:32.193Z,685
2016-09-26T08:40:32.120Z,705
2016-09-26T08:41:33.336Z,730
2016-09-26T08:42:31.953Z,765
2016-09-26T08:43:34.174Z,835
2016-09-26T08:44:32.833Z,950
2016-09-26T08:45:33.913Z,980
2016-09-26T08:46:33.162Z,990
2016-09-26T08:47:32.908Z,1015
2016-09-26T08:48:32.231Z,1050
2016-09-26T08:49:32.094Z,1095
2016-09-26T08:50:32.001Z,1145
2016-09-26T08:51:32.450Z,1195
2016-09-26T08:52:32.997Z,1225
2016-09-26T08:53:31.820Z,1235
2016-09-26T08:54:32.007Z,1235
2016-09-26T08:55:31.829Z,1245
2016-09-26T08:56:33.013Z,1225
2016-09-26T08:57:31.730Z,1220
2016-09-26T08:58:31.749Z,1200
2016-09-26T08:59:32.237Z,1145
2016-09-26T09:00:32.403Z,1160
2016-09-26T09:01:33.016Z,1125
2016-09-26T09:02:31.734Z,1100
2016-09-26T09:03:32.314Z,1045
2016-09-26T09:04:32.768Z,965
2016-09-26T09:05:32.693Z,890
2016-09-26T09:06:33.083Z,845
2016-09-26T09:07:32.163Z,795
2016-09-26T09:08:32.860Z,760
2016-09-26T09:09:33.061Z,735
2016-09-26T09:10:32.141Z,705
2016-09-26T09:11:34.231Z,685
2016-09-26T09:12:32.980Z,675
2016-09-26T09:13:31.770Z,675
2016-09-26T09:14:33.858Z,665
2016-09-26T09:15:33.101Z,685
2016-09-26T09:16:32.970Z,720
2016-09-26T09:17:32.887Z,730
2016-09-26T09:18:33.001Z,735
2016-09-26T09:19:33.464Z,760
2016-09-26T09:20:33.875Z,810
2016-09-26T09:21:34.334Z,860
2016-09-26T09:22:32.187Z,900
2016-09-26T09:23:33.774Z,890
2016-09-26T09:24:33.825Z,925
2016-09-26T09:25:32.681Z,895
2016-09-26T09:26:33.050Z,860
2016-09-26T09:27:34.255Z,860
2016-09-26T09:28:34.258Z,895
2016-09-26T09:29:34.033Z,910
2016-09-26T09:30:34.063Z,905
2016-09-26T09:31:35.385Z,945
2016-09-26T09:32:34.761Z,970
2016-09-26T09:33:34.428Z,965
2016-09-26T09:34:33.080Z,945
2016-09-26T09:35:32.775Z,955
2016-09-26T09:36:34.613Z,945
2016-09-26T09:37:34.334Z,920
2016-09-26T09:38:33.959Z,950
2016-09-26T09:39:32.968Z,1005
2016-09-26T09:40:33.492Z,1055
2016-09-26T09:41:34.460Z,1070
2016-09-26T09:42:34.224Z,1045
2016-09-26T09:43:33.482Z,1010
2016-09-26T09:44:34.864Z,915
2016-09-26T09:45:34.814Z,1000
2016-09-26T09:46:33.233Z,1025
2016-09-26T09:47:34.772Z,925
2016-09-26T09:48:34.203Z,930
2016-09-26T09:49:34.903Z,765
2016-09-26T09:50:34.803Z,795
2016-09-26T09:51:35.171Z,735
2016-09-26T09:52:34.070Z,850
2016-09-26T09:53:33.226Z,835
2016-09-26T09:54:34.587Z,765
2016-09-26T09:55:34.221Z,745
2016-09-26T09:56:34.405Z,745
2016-09-26T09:57:34.356Z,715
2016-09-26T09:58:33.532Z,665
2016-09-26T09:59:34.080Z,660
2016-09-26T10:00:36.035Z,705
2016-09-26T10:01:34.820Z,715
2016-09-26T10:02:34.689Z,725
2016-09-26T10:03:34.198Z,730
2016-09-26T10:04:34.420Z,715
2016-09-26T10:05:34.769Z,730
2016-09-26T10:06:34.683Z,785
2016-09-26T10:07:33.992Z,810
2016-09-26T10:08:34.750Z,815
2016-09-26T10:09:34.902Z,740
2016-09-26T10:10:35.210Z,755
2016-09-26T10:11:34.757Z,755
2016-09-26T10:12:33.568Z,850
2016-09-26T10:13:34.898Z,925
2016-09-26T10:14:34.535Z,965
2016-09-26T10:15:34.539Z,1020
2016-09-26T10:16:34.363Z,1040
2016-09-26T10:17:34.338Z,1075
2016-09-26T10:18:35.160Z,1080
2016-09-26T10:19:35.225Z,1165
2016-09-26T10:20:34.145Z,1125
2016-09-26T10:21:35.422Z,1090
2016-09-26T10:22:34.754Z,1140
2016-09-26T10:23:34.618Z,1135
2016-09-26T10:24:34.863Z,1030
2016-09-26T10:25:36.025Z,1060
2016-09-26T10:26:35.575Z,1100
2016-09-26T10:27:36.279Z,1160
2016-09-26T10:28:34.847Z,1205
2016-09-26T10:29:35.155Z,1185
2016-09-26T10:30:36.068Z,1140
2016-09-26T10:31:34.304Z,1135
2016-09-26T10:32:35.822Z,1140
2016-09-26T10:33:35.808Z,1150
2016-09-26T10:34:35.431Z,1170
2016-09-26T10:35:35.110Z,1205
2016-09-26T10:36:35.555Z,1210
2016-09-26T10:37:35.484Z,1205
2016-09-26T10:38:34.806Z,1205
2016-09-26T10:39:34.369Z,1210
2016-09-26T10:40:35.302Z,1200
2016-09-26T10:41:34.953Z,1180
2016-09-26T10:42:35.110Z,1190
2016-09-26T10:43:34.829Z,1180
2016-09-26T10:44:36.811Z,1185
2016-09-26T10:45:35.008Z,1180
2016-09-26T10:46:35.993Z,1185
2016-09-26T10:47:35.495Z,1205
2016-09-26T10:48:34.594Z,1225
2016-09-26T10:49:35.656Z,1250
2016-09-26T10:50:35.049Z,1275
2016-09-26T10:51:35.803Z,1275
2016-09-26T10:52:35.512Z,1270
2016-09-26T10:53:35.383Z,1250
2016-09-26T10:54:35.206Z,1235
2016-09-26T10:55:36.693Z,1220
2016-09-26T10:56:35.487Z,1225
2016-09-26T10:57:35.839Z,1190
2016-09-26T10:58:35.754Z,1185
2016-09-26T10:59:35.552Z,1185
2016-09-26T11:00:36.881Z,1225
2016-09-26T11:01:35.711Z,1220
2016-09-26T11:02:35.610Z,1230
2016-09-26T11:03:35.927Z,1235
2016-09-26T11:04:35.355Z,1225
2016-09-26T11:05:35.424Z,1220
2016-09-26T11:06:37.223Z,1205
2016-09-26T11:07:36.188Z,1210
2016-09-26T11:08:34.703Z,1215
2016-09-26T11:09:37.286Z,1215
2016-09-26T11:10:36.671Z,1220
2016-09-26T11:11:34.798Z,1225
2016-09-26T11:12:35.355Z,1210
2016-09-26T11:13:35.992Z,1190
2016-09-26T11:14:35.481Z,1165
2016-09-26T11:15:37.449Z,1135
2016-09-26T11:16:37.776Z,1125
2016-09-26T11:17:37.549Z,1125
2016-09-26T11:18:35.960Z,1125
2016-09-26T11:19:36.296Z,1130
2016-09-26T11:20:35.464Z,1140
2016-09-26T11:21:35.945Z,1130
2016-09-26T11:22:36.160Z,1115
2016-09-26T11:23:35.241Z,1105
2016-09-26T11:24:36.588Z,1100
2016-09-26T11:25:35.538Z,1095
2016-09-26T11:26:35.633Z,1105
2016-09-26T11:27:36.999Z,1105
2016-09-26T11:28:35.450Z,1095
2016-09-26T11:29:36.910Z,1070
2016-09-26T11:30:35.844Z,1045
2016-09-26T11:31:37.392Z,990
2016-09-26T11:32:38.299Z,965
2016-09-26T11:33:35.671Z,950
2016-09-26T11:34:38.086Z,930
2016-09-26T11:35:37.438Z,915
2016-09-26T11:36:36.115Z,900
2016-09-26T11:37:37.066Z,870
2016-09-26T11:38:37.418Z,830
2016-09-26T11:39:36.703Z,810
2016-09-26T11:40:37.571Z,785
2016-09-26T11:41:38.125Z,760
2016-09-26T11:42:35.827Z,730
2016-09-26T11:43:37.827Z,690
2016-09-26T11:44:38.350Z,670
2016-09-26T11:45:37.445Z,650
2016-09-26T11:46:38.945Z,640
2016-09-26T11:47:36.783Z,650
2016-09-26T11:48:37.039Z,655
2016-09-26T11:49:36.869Z,665
2016-09-26T11:50:37.965Z,675
2016-09-26T11:51:36.711Z,680
2016-09-26T11:52:37.218Z,675
2016-09-26T11:53:36.954Z,660
2016-09-26T11:54:36.443Z,650
2016-09-26T11:55:37.890Z,640
2016-09-26T11:56:37.751Z,635
2016-09-26T11:57:37.351Z,630
2016-09-26T11:58:37.821Z,610
2016-09-26T11:59:38.337Z,595
2016-09-26T12:00:37.225Z,575
2016-09-26T12:01:38.041Z,555
2016-09-26T12:02:37.717Z,540
2016-09-26T12:03:39.546Z,545
2016-09-26T12:04:37.182Z,550
2016-09-26T12:05:37.191Z,560
2016-09-26T12:06:38.496Z,585
2016-09-26T12:07:37.287Z,625
2016-09-26T12:08:37.186Z,665
2016-09-26T12:09:37.248Z,710
2016-09-26T12:10:38.162Z,735
2016-09-26T12:11:38.487Z,735
2016-09-26T12:12:37.286Z,725
2016-09-26T12:13:37.221Z,705
2016-09-26T12:14:37.909Z,695
2016-09-26T12:15:37.285Z,690
2016-09-26T12:16:38.506Z,700
2016-09-26T12:17:37.263Z,715
2016-09-26T12:18:37.455Z,745
2016-09-26T12:19:37.268Z,790
2016-09-26T12:20:37.603Z,845
2016-09-26T12:21:38.304Z,915
2016-09-26T12:22:37.787Z,975
2016-09-26T12:23:38.550Z,1035
2016-09-26T12:24:37.860Z,1095
2016-09-26T12:25:38.524Z,1105
2016-09-26T12:26:37.302Z,1075
2016-09-26T12:27:37.821Z,1035
2016-09-26T12:28:37.953Z,995
2016-09-26T12:29:37.154Z,975
2016-09-26T12:30:38.106Z,965
2016-09-26T12:31:38.026Z,965
2016-09-26T12:32:38.301Z,960
2016-09-26T12:33:36.968Z,955
2016-09-26T12:34:39.779Z,935
2016-09-26T12:35:39.412Z,930
2016-09-26T12:36:38.121Z,925
2016-09-26T12:37:37.989Z,935
2016-09-26T12:38:37.581Z,935
2016-09-26T12:39:36.970Z,945
2016-09-26T12:40:40.816Z,965
2016-09-26T12:41:39.642Z,1000
2016-09-26T12:42:38.624Z,1035
2016-09-26T12:43:37.467Z,1065
2016-09-26T12:44:37.745Z,1075
2016-09-26T12:45:38.626Z,1060
2016-09-26T12:46:38.014Z,1050
2016-09-26T12:47:39.109Z,1040
2016-09-26T12:48:38.568Z,1025
2016-09-26T12:49:38.651Z,1015
2016-09-26T12:50:39.345Z,1000
2016-09-26T12:51:40.012Z,990
2016-09-26T12:52:39.911Z,985
2016-09-26T12:53:38.616Z,965
2016-09-26T12:54:38.926Z,960
2016-09-26T12:55:39.079Z,950
2016-09-26T12:56:39.168Z,955
2016-09-26T12:57:39.308Z,980
2016-09-26T12:58:39.842Z,1015
2016-09-26T12:59:38.037Z,1040
2016-09-26T13:00:39.170Z,1055
2016-09-26T13:01:37.788Z,1065
2016-09-26T13:02:39.262Z,1065
2016-09-26T13:03:38.474Z,1055
2016-09-26T13:04:37.903Z,1045
2016-09-26T13:05:39.716Z,1030
2016-09-26T13:06:38.401Z,1000
2016-09-26T13:07:40.648Z,975
2016-09-26T13:08:38.506Z,950
2016-09-26T13:09:39.274Z,945
2016-09-26T13:10:39.671Z,925
2016-09-26T13:11:38.272Z,915
2016-09-26T13:12:40.076Z,900
2016-09-26T13:13:39.637Z,885
2016-09-26T13:14:39.465Z,855
2016-09-26T13:15:40.275Z,830
2016-09-26T13:16:39.224Z,815
2016-09-26T13:17:39.811Z,805
2016-09-26T13:18:38.419Z,790
2016-09-26T13:19:39.590Z,780
2016-09-26T13:20:39.667Z,775
2016-09-26T13:21:39.297Z,765
2016-09-26T13:22:39.952Z,760
2016-09-26T13:23:38.419Z,755
2016-09-26T13:24:39.426Z,755
2016-09-26T13:25:39.775Z,755
2016-09-26T13:26:38.968Z,755
2016-09-26T13:27:40.129Z,750
2016-09-26T13:28:40.434Z,735
2016-09-26T13:29:38.526Z,710
2016-09-26T13:30:39.052Z,680
2016-09-26T13:31:40.681Z,650
2016-09-26T13:32:40.191Z,620
2016-09-26T13:33:39.857Z,595
2016-09-26T13:34:41.504Z,580
2016-09-26T13:35:40.653Z,555
2016-09-26T13:36:39.204Z,535
2016-09-26T13:37:39.921Z,515
2016-09-26T13:38:40.591Z,495
2016-09-26T13:39:39.532Z,480
2016-09-26T13:40:40.432Z,455
2016-09-26T13:41:39.602Z,435
2016-09-26T13:42:40.606Z,410
2016-09-26T13:43:39.876Z,395
2016-09-26T13:44:42.319Z,375
2016-09-26T13:45:40.877Z,360
2016-09-26T13:46:40.190Z,345
2016-09-26T13:47:40.332Z,335
2016-09-26T13:48:39.304Z,325
2016-09-26T13:49:40.565Z,310
2016-09-26T13:50:40.631Z,300
2016-09-26T13:51:40.401Z,285
2016-09-26T13:52:40.115Z,275
2016-09-26T13:53:40.045Z,265
2016-09-26T13:54:40.060Z,255
2016-09-26T13:55:40.365Z,250
2016-09-26T13:56:42.081Z,240
2016-09-26T13:57:40.143Z,235
2016-09-26T13:58:40.484Z,225
2016-09-26T13:59:39.744Z,220
2016-09-26T14:00:40.184Z,210
2016-09-26T14:01:40.627Z,200
2016-09-26T14:02:39.776Z,195
2016-09-26T14:03:39.655Z,185
2016-09-26T14:04:39.738Z,180
2016-09-26T14:05:41.096Z,185